createdAt,value
2019-05-29T00:02:06.185Z,101045.11
2019-05-29T00:04:36.243Z,101053.03
2019-05-29T00:07:06.177Z,101059.86
2019-05-29T00:09:36.150Z,101057.56
2019-05-29T00:12:08.338Z,101063.25
2019-05-29T00:14:38.902Z,101068.21
2019-05-29T00:17:08.873Z,101072.53
2019-05-29T00:19:38.688Z,101072.96
2019-05-29T00:22:09.019Z,101074.50
2019-05-29T00:24:38.869Z,101072.16
2019-05-29T00:27:12.591Z,101080.47
2019-05-29T00:29:40.289Z,101085.24
2019-05-29T00:32:11.906Z,101085.09
2019-05-29T00:34:42.035Z,101080.64
2019-05-29T00:37:12.511Z,101083.76
2019-05-29T00:39:42.631Z,101089.00
2019-05-29T00:42:13.261Z,101094.97
2019-05-29T00:44:44.780Z,101089.72
2019-05-29T00:47:15.677Z,101094.40
2019-05-29T00:49:45.688Z,101097.64
2019-05-29T00:52:16.595Z,101104.17
2019-05-29T00:54:46.556Z,101095.58
2019-05-29T00:57:17.105Z,101108.79
2019-05-29T00:59:48.269Z,101112.91
2019-05-29T01:02:18.291Z,101115.08
2019-05-29T01:04:48.409Z,101118.77
2019-05-29T01:07:18.735Z,101123.26
2019-05-29T01:09:48.503Z,101128.20
2019-05-29T01:12:19.446Z,101127.77
2019-05-29T01:14:50.747Z,101129.59
2019-05-29T01:17:21.861Z,101135.53
2019-05-29T01:19:52.738Z,101139.90
2019-05-29T01:22:22.587Z,101152.34
2019-05-29T01:24:53.821Z,101144.85
2019-05-29T01:27:23.829Z,101126.58
2019-05-29T01:29:54.096Z,101150.52
2019-05-29T01:32:24.409Z,101151.28
2019-05-29T01:34:54.624Z,101157.82
2019-05-29T01:37:26.373Z,101157.72
2019-05-29T01:39:56.407Z,101158.67
2019-05-29T01:42:27.647Z,101164.10
2019-05-29T01:45:07.813Z,101166.12
2019-05-29T01:47:29.722Z,101165.11
2019-05-29T01:49:59.834Z,101164.80
2019-05-29T01:52:29.872Z,101167.38
2019-05-29T01:54:59.726Z,101174.75
2019-05-29T01:57:30.499Z,101179.08
2019-05-29T02:00:00.415Z,101183.28
2019-05-29T02:02:30.716Z,101177.25
2019-05-29T02:05:00.700Z,101179.80
2019-05-29T02:07:30.943Z,101186.48
2019-05-29T02:10:00.920Z,101185.97
2019-05-29T02:12:49.921Z,101185.81
2019-05-29T02:15:28.784Z,101192.48
2019-05-29T02:17:51.996Z,101193.16
2019-05-29T02:20:23.148Z,101196.05
2019-05-29T02:22:54.288Z,101198.22
2019-05-29T02:25:24.428Z,101196.80
2019-05-29T02:27:54.383Z,101199.70
2019-05-29T02:30:27.498Z,101207.79
2019-05-29T02:32:56.232Z,101207.27
2019-05-29T02:35:27.449Z,101210.30
2019-05-29T02:37:57.889Z,101216.77
2019-05-29T02:40:29.834Z,101215.87
2019-05-29T02:42:59.767Z,101213.04
2019-05-29T02:45:50.340Z,101213.78
2019-05-29T02:48:01.319Z,101219.16
2019-05-29T02:50:31.398Z,101189.24
2019-05-29T02:53:01.332Z,101223.55
2019-05-29T02:55:31.390Z,101231.66
2019-05-29T02:58:01.338Z,101231.88
2019-05-29T03:00:52.706Z,101236.42
2019-05-29T03:03:26.147Z,101239.63
2019-05-29T03:05:56.105Z,101250.02
2019-05-29T03:08:27.293Z,101241.82
2019-05-29T03:10:57.996Z,101241.30
2019-05-29T03:13:29.835Z,101247.38
2019-05-29T03:16:10.714Z,101250.63
2019-05-29T03:18:32.535Z,101254.23
2019-05-29T03:21:02.715Z,101262.50
2019-05-29T03:23:35.193Z,101264.84
2019-05-29T03:26:04.579Z,101266.61
2019-05-29T03:28:35.208Z,101268.77
2019-05-29T03:31:05.644Z,101272.37
2019-05-29T03:33:47.120Z,101277.20
2019-05-29T03:36:07.241Z,101279.00
2019-05-29T03:38:38.609Z,101286.52
2019-05-29T03:41:08.889Z,101291.89
2019-05-29T03:43:38.909Z,101290.98
2019-05-29T03:46:28.715Z,101291.52
2019-05-29T03:48:41.074Z,101305.83
2019-05-29T03:51:11.016Z,101301.02
2019-05-29T03:53:40.924Z,101304.20
2019-05-29T03:56:10.921Z,101302.08
2019-05-29T03:58:40.925Z,101308.87
2019-05-29T04:01:11.456Z,101307.27
2019-05-29T04:03:41.568Z,101317.63
2019-05-29T04:06:11.521Z,101321.04
2019-05-29T04:08:41.469Z,101326.94
2019-05-29T04:11:11.479Z,101325.30
2019-05-29T04:13:41.470Z,101332.97
2019-05-29T04:16:12.156Z,101330.59
2019-05-29T04:18:42.509Z,101334.88
2019-05-29T04:21:14.319Z,101336.33
2019-05-29T04:23:45.746Z,101337.20
2019-05-29T04:26:17.894Z,101339.34
2019-05-29T04:28:49.255Z,101343.42
2019-05-29T04:31:19.297Z,101346.52
2019-05-29T04:33:49.221Z,101349.73
2019-05-29T04:36:19.185Z,101327.91
2019-05-29T04:38:49.121Z,101355.57
2019-05-29T04:41:20.231Z,101357.67
2019-05-29T04:43:50.152Z,101360.51
2019-05-29T04:46:20.023Z,101364.59
2019-05-29T04:48:49.952Z,101374.62
2019-05-29T04:51:19.803Z,101375.49
2019-05-29T04:53:50.029Z,101381.00
2019-05-29T04:56:19.973Z,101382.19
2019-05-29T04:58:50.140Z,101383.66
2019-05-29T05:01:23.000Z,101385.61
2019-05-29T05:03:53.200Z,101387.05
2019-05-29T05:06:23.091Z,101380.66
2019-05-29T05:08:53.826Z,101378.81
2019-05-29T05:11:24.788Z,101379.53
2019-05-29T05:13:55.191Z,101377.09
2019-05-29T05:16:25.113Z,101373.13
2019-05-29T05:18:55.402Z,101371.53
2019-05-29T05:21:26.018Z,101383.11
2019-05-29T05:23:56.050Z,101380.23
2019-05-29T05:26:26.014Z,101386.83
2019-05-29T05:28:56.282Z,101391.04
2019-05-29T05:31:26.294Z,101396.52
2019-05-29T05:33:56.560Z,101396.43
2019-05-29T05:36:26.674Z,101400.73
2019-05-29T05:38:56.725Z,101408.87
2019-05-29T05:41:27.547Z,101406.47
2019-05-29T05:43:57.464Z,101403.16
2019-05-29T05:46:27.649Z,101412.87
2019-05-29T05:48:57.766Z,101412.63
2019-05-29T05:51:27.729Z,101418.56
2019-05-29T05:53:57.629Z,101421.02
2019-05-29T05:56:27.615Z,101426.89
2019-05-29T05:58:57.510Z,101432.01
2019-05-29T06:01:27.493Z,101443.37
2019-05-29T06:03:58.367Z,101445.45
2019-05-29T06:06:28.282Z,101443.13
2019-05-29T06:08:58.276Z,101444.75
2019-05-29T06:11:28.089Z,101450.45
2019-05-29T06:13:58.056Z,101454.89
2019-05-29T06:16:28.034Z,101453.87
2019-05-29T06:18:57.786Z,101460.39
2019-05-29T06:21:27.701Z,101461.05
2019-05-29T06:23:58.016Z,101458.44
2019-05-29T06:26:28.320Z,101455.02
2019-05-29T06:28:58.731Z,101466.49
2019-05-29T06:31:28.791Z,101463.23
2019-05-29T06:33:58.614Z,101468.97
2019-05-29T06:36:28.514Z,101461.61
2019-05-29T06:38:58.738Z,101463.66
2019-05-29T06:41:29.006Z,101463.42
2019-05-29T06:43:59.611Z,101468.22
2019-05-29T06:46:29.629Z,101481.38
2019-05-29T06:49:00.983Z,101480.47
2019-05-29T06:51:31.341Z,101478.19
2019-05-29T06:54:01.236Z,101479.46
2019-05-29T06:56:31.202Z,101481.08
2019-05-29T06:59:01.390Z,101495.43
2019-05-29T07:01:32.818Z,101498.83
2019-05-29T07:04:11.967Z,101500.47
2019-05-29T07:06:34.361Z,101502.05
2019-05-29T07:09:05.633Z,101503.20
2019-05-29T07:11:35.492Z,101503.54
2019-05-29T07:14:06.781Z,101516.44
2019-05-29T07:16:46.347Z,101510.66
2019-05-29T07:19:25.212Z,101514.23
2019-05-29T07:21:40.857Z,101516.41
2019-05-29T07:24:10.887Z,101523.94
2019-05-29T07:26:41.105Z,101524.30
2019-05-29T07:29:11.342Z,101515.53
2019-05-29T07:31:41.255Z,101532.02
2019-05-29T07:34:11.278Z,101532.91
2019-05-29T07:36:41.946Z,101539.45
2019-05-29T07:39:11.872Z,101542.67
2019-05-29T07:41:41.917Z,101544.59
2019-05-29T07:44:11.955Z,101547.77
2019-05-29T07:46:42.255Z,101550.45
2019-05-29T07:49:12.221Z,101546.06
2019-05-29T07:51:43.704Z,101547.70
2019-05-29T07:54:14.648Z,101551.61
2019-05-29T07:56:44.734Z,101557.61
2019-05-29T07:59:14.794Z,101554.81
2019-05-29T08:01:46.929Z,101551.14
2019-05-29T08:04:17.345Z,101547.43
2019-05-29T08:06:52.329Z,101551.25
2019-05-29T08:09:19.178Z,101552.75
2019-05-29T08:11:50.153Z,101556.47
2019-05-29T08:14:21.051Z,101557.36
2019-05-29T08:16:51.036Z,101559.36
2019-05-29T08:19:21.256Z,101566.06
2019-05-29T08:21:51.370Z,101564.05
2019-05-29T08:24:24.695Z,101557.99
2019-05-29T08:26:53.617Z,101563.97
2019-05-29T08:29:23.613Z,101566.80
2019-05-29T08:31:53.609Z,101569.75
2019-05-29T08:34:23.774Z,101584.92
2019-05-29T08:37:04.770Z,101579.30
2019-05-29T08:39:36.025Z,101582.89
2019-05-29T08:42:21.313Z,101585.79
2019-05-29T08:44:29.909Z,101590.20
2019-05-29T08:47:09.422Z,101589.23
2019-05-29T08:49:31.592Z,101586.37
2019-05-29T08:52:11.339Z,101586.31
2019-05-29T08:54:33.254Z,101592.33
2019-05-29T08:57:04.596Z,101590.59
2019-05-29T08:59:34.451Z,101595.08
2019-05-29T09:02:05.849Z,101590.38
2019-05-29T09:04:35.871Z,101593.36
2019-05-29T09:07:05.783Z,101593.08
2019-05-29T09:09:35.725Z,101589.05
2019-05-29T09:12:06.098Z,101593.70
2019-05-29T09:14:36.022Z,101589.17
2019-05-29T09:17:06.804Z,101590.01
2019-05-29T09:19:36.920Z,101587.78
2019-05-29T09:22:06.947Z,101592.94
2019-05-29T09:24:36.878Z,101594.39
2019-05-29T09:27:06.933Z,101591.16
2019-05-29T09:29:37.193Z,101565.90
2019-05-29T09:32:07.313Z,101593.81
2019-05-29T09:34:37.410Z,101602.02
2019-05-29T09:37:07.488Z,101599.05
2019-05-29T09:39:37.541Z,101601.62
2019-05-29T09:42:07.571Z,101604.59
2019-05-29T09:44:40.090Z,101608.66
2019-05-29T09:47:10.227Z,101607.59
2019-05-29T09:49:40.573Z,101606.16
2019-05-29T09:52:11.082Z,101612.18
2019-05-29T09:54:41.267Z,101617.78
2019-05-29T09:57:15.253Z,101620.06
2019-05-29T09:59:43.506Z,101621.72
2019-05-29T10:02:13.962Z,101626.28
2019-05-29T10:04:43.974Z,101617.77
2019-05-29T10:07:13.947Z,101617.39
2019-05-29T10:09:43.881Z,101621.99
2019-05-29T10:12:13.965Z,101632.13
2019-05-29T10:14:45.110Z,101625.39
2019-05-29T10:17:15.294Z,101627.32
2019-05-29T10:19:45.783Z,101627.47
2019-05-29T10:22:15.700Z,101627.28
2019-05-29T10:24:45.652Z,101622.02
2019-05-29T10:27:16.005Z,101623.04
2019-05-29T10:29:48.815Z,101621.32
2019-05-29T10:32:17.915Z,101623.83
2019-05-29T10:34:48.492Z,101624.08
2019-05-29T10:37:18.720Z,101622.84
2019-05-29T10:39:49.164Z,101627.31
2019-05-29T10:42:20.682Z,101626.61
2019-05-29T10:44:51.259Z,101624.42
2019-05-29T10:47:21.334Z,101634.07
2019-05-29T10:49:51.773Z,101632.02
2019-05-29T10:52:21.671Z,101635.75
2019-05-29T10:54:52.449Z,101631.28
2019-05-29T10:57:22.572Z,101634.84
2019-05-29T10:59:52.889Z,101636.73
2019-05-29T11:02:23.155Z,101629.11
2019-05-29T11:04:56.672Z,101631.98
2019-05-29T11:07:25.029Z,101630.97
2019-05-29T11:09:56.155Z,101632.05
2019-05-29T11:12:26.283Z,101634.14
2019-05-29T11:14:57.131Z,101631.59
2019-05-29T11:17:27.388Z,101631.06
2019-05-29T11:19:58.239Z,101632.48
2019-05-29T11:22:28.561Z,101633.42
2019-05-29T11:25:20.622Z,101633.91
2019-05-29T11:27:30.857Z,101634.40
2019-05-29T11:30:00.832Z,101628.22
2019-05-29T11:32:31.948Z,101640.66
2019-05-29T11:35:02.362Z,101636.43
2019-05-29T11:37:32.618Z,101638.98
2019-05-29T11:40:03.367Z,101636.40
2019-05-29T11:42:35.701Z,101639.24
2019-05-29T11:45:06.900Z,101640.59
2019-05-29T11:47:36.764Z,101640.44
2019-05-29T11:50:19.262Z,101639.43
2019-05-29T11:52:44.676Z,101632.15
2019-05-29T11:55:15.435Z,101628.97
2019-05-29T11:57:45.768Z,101637.00
2019-05-29T12:00:20.406Z,101633.94
2019-05-29T12:02:48.071Z,101629.98
2019-05-29T12:05:19.062Z,101630.02
2019-05-29T12:07:51.235Z,101631.54
2019-05-29T12:10:23.199Z,101624.16
2019-05-29T12:12:53.495Z,101621.22
2019-05-29T12:15:23.945Z,101625.16
2019-05-29T12:17:57.937Z,101628.31
2019-05-29T12:20:28.828Z,101628.52
2019-05-29T12:23:18.659Z,101624.03
2019-05-29T12:25:29.675Z,101623.34
2019-05-29T12:28:01.211Z,101625.28
2019-05-29T12:30:32.036Z,101623.48
2019-05-29T12:33:01.820Z,101616.36
2019-05-29T12:35:34.479Z,101623.42
2019-05-29T12:38:04.928Z,101610.14
2019-05-29T12:40:34.902Z,101613.13
2019-05-29T12:43:04.944Z,101617.19
2019-05-29T12:45:34.862Z,101611.11
2019-05-29T12:48:12.287Z,101607.72
2019-05-29T12:50:36.744Z,101609.87
2019-05-29T12:53:07.121Z,101605.63
2019-05-29T12:55:37.036Z,101613.04
2019-05-29T12:58:07.154Z,101609.44
2019-05-29T13:00:37.168Z,101612.93
2019-05-29T13:03:07.148Z,101615.22
2019-05-29T13:05:39.772Z,101614.45
2019-05-29T13:08:09.651Z,101608.42
2019-05-29T13:10:40.218Z,101608.64
2019-05-29T13:13:11.270Z,101612.91
2019-05-29T13:15:42.006Z,101611.48
2019-05-29T13:18:11.938Z,101613.44
2019-05-29T13:20:41.806Z,101612.17
2019-05-29T13:23:11.782Z,101612.69
2019-05-29T13:25:41.673Z,101607.97
2019-05-29T13:28:11.733Z,101606.16
2019-05-29T13:30:42.071Z,101612.58
2019-05-29T13:33:12.143Z,101608.48
2019-05-29T13:35:42.564Z,101606.32
2019-05-29T13:38:13.227Z,101605.21
2019-05-29T13:40:43.433Z,101606.28
2019-05-29T13:43:15.733Z,101604.30
2019-05-29T13:45:45.517Z,101601.12
2019-05-29T13:48:15.432Z,101602.25
2019-05-29T13:50:48.730Z,101608.34
2019-05-29T13:53:17.606Z,101604.29
2019-05-29T13:55:47.571Z,101604.41
2019-05-29T13:58:17.597Z,101604.54
2019-05-29T14:00:47.576Z,101605.17
2019-05-29T14:03:17.546Z,101601.50
2019-05-29T14:05:47.458Z,101605.04
2019-05-29T14:08:17.393Z,101600.58
2019-05-29T14:10:47.290Z,101603.73
2019-05-29T14:13:17.644Z,101606.69
2019-05-29T14:15:47.453Z,101599.20
2019-05-29T14:18:17.440Z,101605.44
2019-05-29T14:20:47.288Z,101608.15
2019-05-29T14:23:17.222Z,101603.16
2019-05-29T14:25:47.136Z,101601.88
2019-05-29T14:28:17.548Z,101601.45
2019-05-29T14:30:47.776Z,101596.11
2019-05-29T14:33:17.747Z,101598.86
2019-05-29T14:35:47.694Z,101592.80
2019-05-29T14:38:18.553Z,101600.64
2019-05-29T14:40:48.470Z,101589.44
2019-05-29T14:43:18.439Z,101594.83
2019-05-29T14:45:48.282Z,101593.94
2019-05-29T14:48:18.210Z,101594.48
2019-05-29T14:50:48.096Z,101592.20
2019-05-29T14:53:18.075Z,101597.41
2019-05-29T14:55:48.232Z,101590.78
2019-05-29T14:58:18.033Z,101588.16
2019-05-29T15:00:48.100Z,101584.58
2019-05-29T15:03:18.086Z,101595.78
2019-05-29T15:05:47.973Z,101593.05
2019-05-29T15:08:17.988Z,101593.23
2019-05-29T15:10:47.939Z,101595.06
2019-05-29T15:13:17.741Z,101606.66
2019-05-29T15:15:47.996Z,101602.31
2019-05-29T15:18:19.172Z,101596.53
2019-05-29T15:20:49.227Z,101600.36
2019-05-29T15:23:20.199Z,101603.19
2019-05-29T15:25:50.510Z,101600.46
2019-05-29T15:28:20.521Z,101606.84
2019-05-29T15:30:50.812Z,101611.16
2019-05-29T15:33:21.563Z,101602.23
2019-05-29T15:35:51.822Z,101604.31
2019-05-29T15:38:23.151Z,101610.45
2019-05-29T15:40:53.337Z,101602.50
2019-05-29T15:43:23.414Z,101603.97
2019-05-29T15:45:53.302Z,101615.44
2019-05-29T15:48:23.555Z,101613.40
2019-05-29T15:50:53.541Z,101610.70
2019-05-29T15:53:23.712Z,101610.66
2019-05-29T15:55:53.784Z,101615.44
2019-05-29T15:58:23.759Z,101580.65
2019-05-29T16:00:53.614Z,101614.97
2019-05-29T16:03:23.899Z,101613.78
2019-05-29T16:05:53.746Z,101614.87
2019-05-29T16:08:23.944Z,101617.98
2019-05-29T16:10:53.920Z,101612.02
2019-05-29T16:13:24.326Z,101608.01
2019-05-29T16:15:54.249Z,101606.88
2019-05-29T16:18:29.070Z,101608.80
2019-05-29T16:20:56.296Z,101607.26
2019-05-29T16:23:35.199Z,101601.38
2019-05-29T16:25:59.171Z,101602.80
2019-05-29T16:28:29.362Z,101602.80
2019-05-29T16:30:59.561Z,101597.39
2019-05-29T16:33:31.295Z,101593.45
2019-05-29T16:36:01.355Z,101597.69
2019-05-29T16:38:31.427Z,101598.97
2019-05-29T16:41:01.211Z,101598.52
2019-05-29T16:43:34.406Z,101600.92
2019-05-29T16:46:06.261Z,101596.75
2019-05-29T16:48:36.748Z,101594.76
2019-05-29T16:51:07.104Z,101598.08
2019-05-29T16:53:37.305Z,101603.37
2019-05-29T16:56:07.368Z,101603.48
2019-05-29T16:58:37.223Z,101604.59
2019-05-29T17:01:07.244Z,101607.41
2019-05-29T17:03:37.805Z,101605.88
2019-05-29T17:06:08.519Z,101614.55
2019-05-29T17:08:38.570Z,101603.75
2019-05-29T17:11:08.854Z,101603.63
2019-05-29T17:13:38.874Z,101603.73
2019-05-29T17:16:08.851Z,101604.77
2019-05-29T17:18:39.245Z,101612.58
2019-05-29T17:21:09.367Z,101604.44
2019-05-29T17:23:39.563Z,101614.07
2019-05-29T17:26:11.320Z,101612.05
2019-05-29T17:28:41.887Z,101607.47
2019-05-29T17:31:11.975Z,101608.75
2019-05-29T17:33:42.324Z,101610.41
2019-05-29T17:36:12.616Z,101607.58
2019-05-29T17:38:42.960Z,101586.07
2019-05-29T17:41:12.945Z,101607.86
2019-05-29T17:43:42.909Z,101607.58
2019-05-29T17:46:12.990Z,101606.20
2019-05-29T17:48:43.560Z,101610.10
2019-05-29T17:51:13.894Z,101613.55
2019-05-29T17:53:44.311Z,101616.22
2019-05-29T17:56:26.373Z,101613.53
2019-05-29T17:58:46.344Z,101610.58
2019-05-29T18:01:18.131Z,101613.41
2019-05-29T18:03:53.072Z,101611.20
2019-05-29T18:06:24.519Z,101605.74
2019-05-29T18:08:54.439Z,101608.78
2019-05-29T18:11:25.226Z,101611.56
2019-05-29T18:13:56.371Z,101610.58
2019-05-29T18:16:27.680Z,101613.00
2019-05-29T18:18:59.069Z,101617.14
2019-05-29T18:21:29.369Z,101616.23
2019-05-29T18:23:59.484Z,101610.30
2019-05-29T18:26:46.274Z,101613.78
2019-05-29T18:29:01.748Z,101612.75
2019-05-29T18:31:31.774Z,101614.77
2019-05-29T18:34:02.138Z,101616.56
2019-05-29T18:36:36.813Z,101611.19
2019-05-29T18:39:08.441Z,101612.46
2019-05-29T18:41:39.515Z,101618.56
2019-05-29T18:44:09.743Z,101617.41
2019-05-29T18:46:39.632Z,101615.72
2019-05-29T18:49:14.397Z,101620.02
2019-05-29T18:51:41.632Z,101618.87
2019-05-29T18:54:11.679Z,101617.95
2019-05-29T18:56:41.584Z,101621.22
2019-05-29T18:59:11.745Z,101624.77
2019-05-29T19:01:44.913Z,101621.94
2019-05-29T19:04:14.929Z,101627.91
2019-05-29T19:06:44.797Z,101618.73
2019-05-29T19:09:14.858Z,101617.56
2019-05-29T19:11:45.312Z,101619.84
2019-05-29T19:14:15.736Z,101629.58
2019-05-29T19:16:46.847Z,101630.19
2019-05-29T19:19:16.795Z,101631.20
2019-05-29T19:21:46.873Z,101629.27
2019-05-29T19:24:16.861Z,101634.98
2019-05-29T19:26:46.800Z,101639.50
2019-05-29T19:29:17.125Z,101642.22
2019-05-29T19:31:47.196Z,101651.07
2019-05-29T19:34:17.160Z,101651.17
2019-05-29T19:36:47.014Z,101644.37
2019-05-29T19:39:17.533Z,101656.25
2019-05-29T19:41:47.633Z,101658.02
2019-05-29T19:44:17.704Z,101659.52
2019-05-29T19:46:53.555Z,101656.12
2019-05-29T19:49:19.390Z,101660.66
2019-05-29T19:51:49.511Z,101664.63
2019-05-29T19:54:19.479Z,101667.62
2019-05-29T19:56:50.003Z,101660.87
2019-05-29T19:59:20.441Z,101660.16
2019-05-29T20:01:50.340Z,101664.93
2019-05-29T20:04:20.268Z,101659.45
2019-05-29T20:06:50.272Z,101661.41
2019-05-29T20:09:20.175Z,101665.53
2019-05-29T20:11:50.317Z,101663.18
2019-05-29T20:14:20.688Z,101667.27
2019-05-29T20:16:50.663Z,101672.42
2019-05-29T20:19:20.597Z,101672.38
2019-05-29T20:21:50.485Z,101669.25
2019-05-29T20:24:20.737Z,101676.58
2019-05-29T20:26:50.760Z,101675.98
2019-05-29T20:29:20.597Z,101676.43
2019-05-29T20:31:50.627Z,101673.62
2019-05-29T20:34:20.685Z,101677.30
2019-05-29T20:36:50.612Z,101670.32
2019-05-29T20:39:20.966Z,101676.20
2019-05-29T20:41:50.854Z,101676.86
2019-05-29T20:44:21.034Z,101674.78
2019-05-29T20:46:50.948Z,101682.09
2019-05-29T20:49:21.041Z,101681.63
2019-05-29T20:51:51.753Z,101682.30
2019-05-29T20:54:21.861Z,101678.22
2019-05-29T20:56:52.009Z,101686.61
2019-05-29T20:59:21.900Z,101683.26
2019-05-29T21:01:51.943Z,101680.98
2019-05-29T21:04:21.968Z,101690.06
2019-05-29T21:06:51.903Z,101689.38
2019-05-29T21:09:22.269Z,101694.73
2019-05-29T21:11:52.158Z,101696.72
2019-05-29T21:14:22.274Z,101698.20
2019-05-29T21:16:52.477Z,101699.17
2019-05-29T21:19:22.813Z,101701.34
2019-05-29T21:21:52.742Z,101699.39
2019-05-29T21:24:22.721Z,101698.20
2019-05-29T21:26:53.275Z,101700.27
2019-05-29T21:29:23.162Z,101706.80
2019-05-29T21:31:53.627Z,101710.67
2019-05-29T21:34:23.739Z,101708.97
2019-05-29T21:36:53.590Z,101712.14
2019-05-29T21:39:23.542Z,101708.03
2019-05-29T21:41:53.450Z,101706.61
2019-05-29T21:44:23.319Z,101704.52
2019-05-29T21:46:53.117Z,101701.70
2019-05-29T21:49:23.034Z,101706.97
2019-05-29T21:51:53.076Z,101707.03
2019-05-29T21:54:22.912Z,101698.77
2019-05-29T21:56:52.800Z,101703.52
2019-05-29T21:59:22.996Z,101701.56
2019-05-29T22:01:53.626Z,101695.10
2019-05-29T22:04:23.831Z,101698.89
2019-05-29T22:06:53.710Z,101698.35
2019-05-29T22:09:23.977Z,101697.70
2019-05-29T22:11:56.316Z,101694.48
2019-05-29T22:14:27.966Z,101694.98
2019-05-29T22:16:59.139Z,101697.22
2019-05-29T22:19:29.286Z,101691.14
2019-05-29T22:22:01.313Z,101687.98
2019-05-29T22:24:31.845Z,101693.41
2019-05-29T22:27:02.086Z,101690.44
2019-05-29T22:29:33.295Z,101681.17
2019-05-29T22:32:03.233Z,101692.18
2019-05-29T22:34:33.506Z,101692.75
2019-05-29T22:37:03.804Z,101695.34
2019-05-29T22:39:33.618Z,101692.66
2019-05-29T22:42:04.231Z,101692.48
2019-05-29T22:44:34.194Z,101688.59
2019-05-29T22:47:04.643Z,101683.91
2019-05-29T22:49:35.151Z,101691.13
2019-05-29T22:52:06.052Z,101680.33
2019-05-29T22:54:36.988Z,101678.20
2019-05-29T22:57:06.984Z,101679.06
2019-05-29T22:59:37.129Z,101678.02
2019-05-29T23:02:07.974Z,101679.73
2019-05-29T23:04:39.377Z,101676.72
2019-05-29T23:07:09.414Z,101678.76
2019-05-29T23:09:39.438Z,101678.76
2019-05-29T23:12:09.407Z,101672.14
2019-05-29T23:14:39.831Z,101669.53
2019-05-29T23:17:09.848Z,101671.86
2019-05-29T23:19:40.449Z,101669.94
2019-05-29T23:22:11.231Z,101670.86
2019-05-29T23:24:41.313Z,101667.68
2019-05-29T23:27:11.865Z,101663.89
2019-05-29T23:29:48.891Z,101668.75
2019-05-29T23:32:19.367Z,101662.66
2019-05-29T23:34:49.395Z,101656.59
2019-05-29T23:37:19.245Z,101661.09
2019-05-29T23:39:49.234Z,101667.76
2019-05-29T23:42:20.564Z,101657.51
2019-05-29T23:44:52.120Z,101656.09
2019-05-29T23:47:22.137Z,101648.88
2019-05-29T23:49:53.468Z,101653.57
2019-05-29T23:52:23.503Z,101649.03
2019-05-29T23:54:53.848Z,101648.83
2019-05-29T23:57:23.951Z,101647.75
